EWG543 EDDK-LDZA
Flight info
| Callsign | EWG543 |
|---|---|
| Flight time | N/A |
| Altitude | 23000 |
| Route | KUMIK1R/31R KUMIK L603 BESNI L605 ESEGA DCT MEDEL DCT EPOLA DCT GOLVA DCT PETOV PETOV2Y |
| Aircraft | A20N/M-SDE2E3FGHIRWXY/LB1 |
Departure
| Time | 2026-05-04 18:56 |
|---|---|
| Airport | Cologne Bonn Airport (EDDK) |
Arrival
| Time | N/A |
|---|---|
| Airport | Zagreb Franjo Tuđman International Airport (LDZA) |
| Time | Latitude | Longitude | Altitude | Speed | Heading |
|---|---|---|---|---|---|
| 2026-05-04 18:32 | 50.88200 | 7.11905 | 235 ft | 0 kts | 216° |
| 2026-05-04 18:43 | 50.88209 | 7.11916 | 236 ft | 2 kts | 215° |
| 2026-05-04 18:43 | 50.88222 | 7.11931 | 236 ft | 2 kts | 214° |
| 2026-05-04 18:43 | 50.88236 | 7.11945 | 237 ft | 2 kts | 205° |
| 2026-05-04 18:44 | 50.88249 | 7.11944 | 235 ft | 1 kts | 125° |
| 2026-05-04 18:44 | 50.88250 | 7.11942 | 235 ft | 0 kts | 125° |
| 2026-05-04 18:47 | 50.88237 | 7.11970 | 235 ft | 10 kts | 125° |
| 2026-05-04 18:48 | 50.88187 | 7.12080 | 233 ft | 13 kts | 126° |
| 2026-05-04 18:48 | 50.88152 | 7.12155 | 233 ft | 13 kts | 126° |
| 2026-05-04 18:48 | 50.88104 | 7.12276 | 236 ft | 14 kts | 104° |
| 2026-05-04 18:48 | 50.88053 | 7.12416 | 234 ft | 15 kts | 133° |
| 2026-05-04 18:49 | 50.87980 | 7.12527 | 236 ft | 15 kts | 139° |
| 2026-05-04 18:49 | 50.87899 | 7.12613 | 235 ft | 14 kts | 180° |
| 2026-05-04 18:49 | 50.87811 | 7.12640 | 233 ft | 13 kts | 145° |
| 2026-05-04 18:49 | 50.87722 | 7.12766 | 233 ft | 21 kts | 137° |
| 2026-05-04 18:50 | 50.87610 | 7.12929 | 234 ft | 22 kts | 137° |
| 2026-05-04 18:50 | 50.87500 | 7.13088 | 240 ft | 21 kts | 137° |
| 2026-05-04 18:50 | 50.87393 | 7.13246 | 236 ft | 21 kts | 140° |
| 2026-05-04 18:50 | 50.87289 | 7.13394 | 238 ft | 19 kts | 137° |
| 2026-05-04 18:51 | 50.87193 | 7.13533 | 241 ft | 18 kts | 137° |
| 2026-05-04 18:51 | 50.87105 | 7.13660 | 244 ft | 16 kts | 137° |
| 2026-05-04 18:51 | 50.87025 | 7.13777 | 246 ft | 15 kts | 137° |
| 2026-05-04 18:51 | 50.86933 | 7.13912 | 247 ft | 23 kts | 137° |
| 2026-05-04 18:52 | 50.86816 | 7.14080 | 251 ft | 21 kts | 137° |
| 2026-05-04 18:52 | 50.86715 | 7.14165 | 257 ft | 13 kts | 139° |
| 2026-05-04 18:52 | 50.86637 | 7.14277 | 261 ft | 21 kts | 137° |
| 2026-05-04 18:52 | 50.86501 | 7.14473 | 261 ft | 29 kts | 137° |
| 2026-05-04 18:53 | 50.86363 | 7.14677 | 267 ft | 26 kts | 138° |
| 2026-05-04 18:53 | 50.86236 | 7.14860 | 272 ft | 24 kts | 137° |
| 2026-05-04 18:53 | 50.86114 | 7.15036 | 276 ft | 23 kts | 138° |
| 2026-05-04 18:53 | 50.85984 | 7.15223 | 280 ft | 31 kts | 137° |
| 2026-05-04 18:54 | 50.85825 | 7.15453 | 288 ft | 30 kts | 137° |
| 2026-05-04 18:54 | 50.85682 | 7.15661 | 297 ft | 27 kts | 137° |
| 2026-05-04 18:54 | 50.85548 | 7.15856 | 300 ft | 27 kts | 138° |
| 2026-05-04 18:54 | 50.85407 | 7.16060 | 306 ft | 27 kts | 138° |
| 2026-05-04 18:55 | 50.85338 | 7.16294 | 311 ft | 22 kts | 86° |
| 2026-05-04 18:55 | 50.85561 | 7.16494 | 312 ft | 23 kts | 332° |
| 2026-05-04 18:55 | 50.85747 | 7.16240 | 308 ft | 65 kts | 317° |
| 2026-05-04 18:56 | 50.86256 | 7.15503 | 275 ft | 133 kts | 317° |
| 2026-05-04 18:56 | 50.87045 | 7.14355 | 500 ft | 160 kts | 317° |
| 2026-05-04 18:56 | 50.87861 | 7.13168 | 1161 ft | 159 kts | 318° |
| 2026-05-04 18:56 | 50.88724 | 7.11957 | 1678 ft | 180 kts | 320° |
| 2026-05-04 18:57 | 50.89905 | 7.11090 | 2134 ft | 203 kts | 350° |
| 2026-05-04 18:57 | 50.91310 | 7.11557 | 2750 ft | 215 kts | 29° |
| 2026-05-04 18:57 | 50.92550 | 7.12963 | 3470 ft | 225 kts | 37° |
| 2026-05-04 18:57 | 50.93693 | 7.14697 | 4362 ft | 230 kts | 57° |
| 2026-05-04 18:58 | 50.94515 | 7.17011 | 4993 ft | 252 kts | 68° |
| 2026-05-04 18:58 | 50.95292 | 7.19650 | 5569 ft | 274 kts | 66° |
| 2026-05-04 18:58 | 50.96157 | 7.22407 | 6422 ft | 283 kts | 68° |
| 2026-05-04 18:58 | 50.96750 | 7.25395 | 7297 ft | 285 kts | 86° |
| 2026-05-04 18:59 | 50.96703 | 7.28507 | 8225 ft | 283 kts | 103° |
| 2026-05-04 18:59 | 50.96315 | 7.31582 | 9198 ft | 285 kts | 108° |
| 2026-05-04 18:59 | 50.95840 | 7.34649 | 10120 ft | 289 kts | 109° |
| 2026-05-04 18:59 | 50.95320 | 7.37835 | 10636 ft | 310 kts | 109° |
| 2026-05-04 19:00 | 50.94751 | 7.41264 | 10995 ft | 333 kts | 109° |
| 2026-05-04 19:00 | 50.94142 | 7.44936 | 11408 ft | 353 kts | 108° |
| 2026-05-04 19:00 | 50.93511 | 7.48759 | 12078 ft | 363 kts | 108° |
| 2026-05-04 19:00 | 50.92864 | 7.52679 | 12903 ft | 370 kts | 108° |
| 2026-05-04 19:01 | 50.92209 | 7.56640 | 13699 ft | 376 kts | 108° |
| 2026-05-04 19:01 | 50.91542 | 7.60649 | 14391 ft | 382 kts | 108° |
| 2026-05-04 19:01 | 50.90852 | 7.64794 | 15176 ft | 386 kts | 108° |
| 2026-05-04 19:01 | 50.90006 | 7.68788 | 15923 ft | 387 kts | 117° |
| 2026-05-04 19:02 | 50.88708 | 7.72532 | 16678 ft | 389 kts | 124° |
| 2026-05-04 19:02 | 50.87204 | 7.76107 | 17432 ft | 392 kts | 128° |
| 2026-05-04 19:02 | 50.85577 | 7.79588 | 18172 ft | 395 kts | 130° |
| 2026-05-04 19:02 | 50.83872 | 7.83044 | 18806 ft | 399 kts | 131° |
| 2026-05-04 19:03 | 50.82138 | 7.86491 | 19414 ft | 404 kts | 131° |
| 2026-05-04 19:03 | 50.80378 | 7.89982 | 20029 ft | 408 kts | 131° |
| 2026-05-04 19:03 | 50.78609 | 7.93510 | 20636 ft | 412 kts | 131° |
| 2026-05-04 19:03 | 50.78005 | 7.94718 | 20841 ft | 413 kts | 131° |